sensor_id;sensor_type;location;lat;lon;timestamp;P1;durP1;ratioP1;P2;durP2;ratioP2
65691;SDS011;52411;52.716;6.696;2022-10-16T00:00:31;6.20;;;2.67;;
65691;SDS011;52411;52.716;6.696;2022-10-16T00:02:57;8.10;;;3.30;;
65691;SDS011;52411;52.716;6.696;2022-10-16T00:05:23;8.70;;;3.60;;
65691;SDS011;52411;52.716;6.696;2022-10-16T00:07:49;6.53;;;3.20;;
65691;SDS011;52411;52.716;6.696;2022-10-16T00:10:14;5.15;;;2.95;;
65691;SDS011;52411;52.716;6.696;2022-10-16T00:12:40;9.30;;;3.53;;
65691;SDS011;52411;52.716;6.696;2022-10-16T00:15:06;8.07;;;3.40;;
65691;SDS011;52411;52.716;6.696;2022-10-16T00:17:32;7.05;;;3.35;;
65691;SDS011;52411;52.716;6.696;2022-10-16T00:19:57;8.48;;;3.30;;
65691;SDS011;52411;52.716;6.696;2022-10-16T00:22:23;7.63;;;3.30;;
65691;SDS011;52411;52.716;6.696;2022-10-16T00:24:49;9.93;;;3.75;;
65691;SDS011;52411;52.716;6.696;2022-10-16T00:27:15;14.90;;;4.00;;
65691;SDS011;52411;52.716;6.696;2022-10-16T00:29:41;6.93;;;4.05;;
65691;SDS011;52411;52.716;6.696;2022-10-16T00:32:07;9.20;;;3.80;;
65691;SDS011;52411;52.716;6.696;2022-10-16T00:34:33;6.13;;;3.85;;
65691;SDS011;52411;52.716;6.696;2022-10-16T00:36:59;9.20;;;3.58;;
65691;SDS011;52411;52.716;6.696;2022-10-16T00:39:24;9.90;;;3.92;;
65691;SDS011;52411;52.716;6.696;2022-10-16T00:41:50;8.43;;;3.75;;
65691;SDS011;52411;52.716;6.696;2022-10-16T00:47:24;6.57;;;3.85;;
65691;SDS011;52411;52.716;6.696;2022-10-16T00:49:51;7.80;;;3.90;;
65691;SDS011;52411;52.716;6.696;2022-10-16T00:52:23;6.70;;;4.05;;
65691;SDS011;52411;52.716;6.696;2022-10-16T00:54:49;8.20;;;4.30;;
65691;SDS011;52411;52.716;6.696;2022-10-16T00:57:17;9.95;;;4.03;;
65691;SDS011;52411;52.716;6.696;2022-10-16T00:59:42;9.23;;;4.38;;
65691;SDS011;52411;52.716;6.696;2022-10-16T01:02:09;8.82;;;4.38;;
65691;SDS011;52411;52.716;6.696;2022-10-16T01:04:38;9.25;;;4.63;;
65691;SDS011;52411;52.716;6.696;2022-10-16T01:07:20;6.43;;;4.20;;
65691;SDS011;52411;52.716;6.696;2022-10-16T01:10:17;8.57;;;4.32;;
65691;SDS011;52411;52.716;6.696;2022-10-16T01:13:06;8.50;;;4.80;;
65691;SDS011;52411;52.716;6.696;2022-10-16T01:18:45;9.63;;;4.32;;
65691;SDS011;52411;52.716;6.696;2022-10-16T01:21:13;6.03;;;4.13;;
65691;SDS011;52411;52.716;6.696;2022-10-16T01:23:51;8.32;;;3.88;;
65691;SDS011;52411;52.716;6.696;2022-10-16T01:31:56;7.78;;;4.25;;
65691;SDS011;52411;52.716;6.696;2022-10-16T01:34:35;7.65;;;4.35;;
65691;SDS011;52411;52.716;6.696;2022-10-16T01:37:11;8.02;;;4.78;;
65691;SDS011;52411;52.716;6.696;2022-10-16T01:39:40;7.18;;;4.22;;
65691;SDS011;52411;52.716;6.696;2022-10-16T01:49:56;10.60;;;4.90;;
65691;SDS011;52411;52.716;6.696;2022-10-16T01:52:25;8.68;;;4.50;;
65691;SDS011;52411;52.716;6.696;2022-10-16T01:54:53;12.45;;;4.82;;
65691;SDS011;52411;52.716;6.696;2022-10-16T01:57:21;8.02;;;4.93;;
65691;SDS011;52411;52.716;6.696;2022-10-16T01:59:51;8.10;;;4.93;;
65691;SDS011;52411;52.716;6.696;2022-10-16T02:02:20;8.98;;;4.80;;
65691;SDS011;52411;52.716;6.696;2022-10-16T02:04:58;9.63;;;4.93;;
65691;SDS011;52411;52.716;6.696;2022-10-16T02:07:36;9.38;;;4.60;;
65691;SDS011;52411;52.716;6.696;2022-10-16T02:10:02;9.50;;;4.50;;
65691;SDS011;52411;52.716;6.696;2022-10-16T02:12:30;12.45;;;4.65;;
65691;SDS011;52411;52.716;6.696;2022-10-16T02:14:57;12.50;;;4.60;;
65691;SDS011;52411;52.716;6.696;2022-10-16T02:17:24;10.32;;;4.75;;
65691;SDS011;52411;52.716;6.696;2022-10-16T02:19:50;6.65;;;4.22;;
65691;SDS011;52411;52.716;6.696;2022-10-16T02:22:22;7.97;;;4.72;;
65691;SDS011;52411;52.716;6.696;2022-10-16T02:30:02;8.07;;;4.20;;
65691;SDS011;52411;52.716;6.696;2022-10-16T02:32:42;12.68;;;4.50;;
65691;SDS011;52411;52.716;6.696;2022-10-16T02:35:11;8.20;;;4.75;;
65691;SDS011;52411;52.716;6.696;2022-10-16T02:37:37;7.72;;;4.22;;
65691;SDS011;52411;52.716;6.696;2022-10-16T02:40:05;7.05;;;4.10;;
65691;SDS011;52411;52.716;6.696;2022-10-16T02:42:36;6.32;;;3.67;;
65691;SDS011;52411;52.716;6.696;2022-10-16T02:45:03;6.27;;;3.70;;
65691;SDS011;52411;52.716;6.696;2022-10-16T02:47:29;6.65;;;3.90;;
65691;SDS011;52411;52.716;6.696;2022-10-16T02:49:55;7.57;;;3.90;;
65691;SDS011;52411;52.716;6.696;2022-10-16T02:52:21;5.75;;;3.55;;
65691;SDS011;52411;52.716;6.696;2022-10-16T02:54:46;6.00;;;3.55;;
65691;SDS011;52411;52.716;6.696;2022-10-16T02:57:12;5.60;;;3.60;;
65691;SDS011;52411;52.716;6.696;2022-10-16T02:59:38;9.05;;;3.40;;
65691;SDS011;52411;52.716;6.696;2022-10-16T03:02:03;7.80;;;3.00;;
65691;SDS011;52411;52.716;6.696;2022-10-16T03:04:29;9.50;;;3.47;;
65691;SDS011;52411;52.716;6.696;2022-10-16T03:06:54;7.43;;;3.38;;
65691;SDS011;52411;52.716;6.696;2022-10-16T03:09:20;5.15;;;3.10;;
65691;SDS011;52411;52.716;6.696;2022-10-16T03:11:46;8.43;;;3.20;;
65691;SDS011;52411;52.716;6.696;2022-10-16T03:14:11;5.90;;;3.47;;
65691;SDS011;52411;52.716;6.696;2022-10-16T03:16:37;7.65;;;3.38;;
65691;SDS011;52411;52.716;6.696;2022-10-16T03:19:02;7.43;;;3.38;;
65691;SDS011;52411;52.716;6.696;2022-10-16T03:21:28;5.18;;;3.30;;
65691;SDS011;52411;52.716;6.696;2022-10-16T03:23:54;7.53;;;3.63;;
65691;SDS011;52411;52.716;6.696;2022-10-16T03:26:20;8.70;;;3.30;;
65691;SDS011;52411;52.716;6.696;2022-10-16T03:28:45;7.13;;;4.15;;
65691;SDS011;52411;52.716;6.696;2022-10-16T03:31:11;5.82;;;3.40;;
65691;SDS011;52411;52.716;6.696;2022-10-16T03:33:36;7.25;;;3.53;;
65691;SDS011;52411;52.716;6.696;2022-10-16T03:36:02;6.25;;;3.40;;
65691;SDS011;52411;52.716;6.696;2022-10-16T03:38:28;6.53;;;3.60;;
65691;SDS011;52411;52.716;6.696;2022-10-16T03:40:53;5.32;;;3.60;;
65691;SDS011;52411;52.716;6.696;2022-10-16T03:43:19;6.60;;;3.88;;
65691;SDS011;52411;52.716;6.696;2022-10-16T03:45:44;5.47;;;3.95;;
65691;SDS011;52411;52.716;6.696;2022-10-16T03:48:10;9.07;;;4.38;;
65691;SDS011;52411;52.716;6.696;2022-10-16T03:50:36;9.25;;;4.80;;
65691;SDS011;52411;52.716;6.696;2022-10-16T03:53:01;10.13;;;4.75;;
65691;SDS011;52411;52.716;6.696;2022-10-16T03:55:27;9.48;;;4.50;;
65691;SDS011;52411;52.716;6.696;2022-10-16T03:57:53;6.25;;;4.63;;
65691;SDS011;52411;52.716;6.696;2022-10-16T04:00:18;8.05;;;5.30;;
65691;SDS011;52411;52.716;6.696;2022-10-16T04:02:44;11.02;;;4.78;;
65691;SDS011;52411;52.716;6.696;2022-10-16T04:05:09;7.00;;;4.72;;
65691;SDS011;52411;52.716;6.696;2022-10-16T04:07:35;7.95;;;4.70;;
65691;SDS011;52411;52.716;6.696;2022-10-16T04:10:01;9.52;;;5.00;;
65691;SDS011;52411;52.716;6.696;2022-10-16T04:12:27;7.55;;;4.80;;
65691;SDS011;52411;52.716;6.696;2022-10-16T04:14:53;6.75;;;4.65;;
65691;SDS011;52411;52.716;6.696;2022-10-16T04:17:18;9.30;;;4.72;;
65691;SDS011;52411;52.716;6.696;2022-10-16T04:19:44;7.85;;;4.95;;
65691;SDS011;52411;52.716;6.696;2022-10-16T04:22:10;9.77;;;4.88;;
65691;SDS011;52411;52.716;6.696;2022-10-16T04:24:35;7.45;;;5.07;;
65691;SDS011;52411;52.716;6.696;2022-10-16T04:27:01;7.22;;;5.32;;
65691;SDS011;52411;52.716;6.696;2022-10-16T04:29:26;8.32;;;5.10;;
65691;SDS011;52411;52.716;6.696;2022-10-16T04:31:52;8.07;;;4.97;;
65691;SDS011;52411;52.716;6.696;2022-10-16T04:34:18;6.63;;;5.00;;
65691;SDS011;52411;52.716;6.696;2022-10-16T04:36:43;9.93;;;5.68;;
65691;SDS011;52411;52.716;6.696;2022-10-16T04:39:09;9.35;;;5.60;;
65691;SDS011;52411;52.716;6.696;2022-10-16T04:41:34;8.02;;;5.22;;
65691;SDS011;52411;52.716;6.696;2022-10-16T04:44:00;8.32;;;5.50;;
65691;SDS011;52411;52.716;6.696;2022-10-16T04:46:25;8.73;;;5.03;;
65691;SDS011;52411;52.716;6.696;2022-10-16T04:48:51;7.47;;;5.43;;
65691;SDS011;52411;52.716;6.696;2022-10-16T04:51:17;8.23;;;5.20;;
65691;SDS011;52411;52.716;6.696;2022-10-16T04:53:43;11.45;;;5.60;;
65691;SDS011;52411;52.716;6.696;2022-10-16T04:56:09;11.38;;;5.40;;
65691;SDS011;52411;52.716;6.696;2022-10-16T04:58:35;8.32;;;5.40;;
65691;SDS011;52411;52.716;6.696;2022-10-16T05:01:00;8.15;;;5.80;;
65691;SDS011;52411;52.716;6.696;2022-10-16T05:03:26;10.82;;;5.95;;
65691;SDS011;52411;52.716;6.696;2022-10-16T05:05:51;9.57;;;5.25;;
65691;SDS011;52411;52.716;6.696;2022-10-16T05:08:17;7.32;;;5.55;;
65691;SDS011;52411;52.716;6.696;2022-10-16T05:10:43;9.13;;;5.78;;
65691;SDS011;52411;52.716;6.696;2022-10-16T05:13:09;8.32;;;5.40;;
65691;SDS011;52411;52.716;6.696;2022-10-16T05:15:36;7.22;;;5.38;;
65691;SDS011;52411;52.716;6.696;2022-10-16T05:18:01;8.23;;;5.55;;
65691;SDS011;52411;52.716;6.696;2022-10-16T05:20:27;9.68;;;6.00;;
65691;SDS011;52411;52.716;6.696;2022-10-16T05:22:53;7.45;;;5.10;;
65691;SDS011;52411;52.716;6.696;2022-10-16T05:25:18;7.80;;;5.22;;
65691;SDS011;52411;52.716;6.696;2022-10-16T05:27:47;9.27;;;5.30;;
65691;SDS011;52411;52.716;6.696;2022-10-16T05:30:13;8.98;;;5.53;;
65691;SDS011;52411;52.716;6.696;2022-10-16T05:32:39;8.02;;;4.97;;
65691;SDS011;52411;52.716;6.696;2022-10-16T05:35:05;10.63;;;5.20;;
65691;SDS011;52411;52.716;6.696;2022-10-16T05:37:31;8.02;;;5.18;;
65691;SDS011;52411;52.716;6.696;2022-10-16T05:39:57;6.40;;;5.05;;
65691;SDS011;52411;52.716;6.696;2022-10-16T05:42:22;7.15;;;5.00;;
65691;SDS011;52411;52.716;6.696;2022-10-16T05:44:48;6.93;;;4.90;;
65691;SDS011;52411;52.716;6.696;2022-10-16T05:47:13;11.13;;;5.20;;
65691;SDS011;52411;52.716;6.696;2022-10-16T05:49:39;9.88;;;5.22;;
65691;SDS011;52411;52.716;6.696;2022-10-16T05:52:05;7.68;;;4.68;;
65691;SDS011;52411;52.716;6.696;2022-10-16T05:54:30;6.82;;;4.75;;
65691;SDS011;52411;52.716;6.696;2022-10-16T05:56:56;7.45;;;4.25;;
65691;SDS011;52411;52.716;6.696;2022-10-16T05:59:21;7.40;;;4.57;;
65691;SDS011;52411;52.716;6.696;2022-10-16T06:01:47;8.25;;;4.45;;
65691;SDS011;52411;52.716;6.696;2022-10-16T06:04:12;8.55;;;4.47;;
65691;SDS011;52411;52.716;6.696;2022-10-16T06:06:38;11.40;;;5.80;;
65691;SDS011;52411;52.716;6.696;2022-10-16T06:09:04;6.00;;;4.28;;
65691;SDS011;52411;52.716;6.696;2022-10-16T06:11:30;5.30;;;4.13;;
65691;SDS011;52411;52.716;6.696;2022-10-16T06:13:57;8.48;;;4.80;;
65691;SDS011;52411;52.716;6.696;2022-10-16T06:16:26;7.38;;;4.70;;
65691;SDS011;52411;52.716;6.696;2022-10-16T06:18:52;8.95;;;4.70;;
65691;SDS011;52411;52.716;6.696;2022-10-16T06:21:20;6.03;;;4.40;;
65691;SDS011;52411;52.716;6.696;2022-10-16T06:23:49;9.37;;;4.27;;
65691;SDS011;52411;52.716;6.696;2022-10-16T06:26:17;5.53;;;4.15;;
65691;SDS011;52411;52.716;6.696;2022-10-16T06:28:44;7.47;;;4.40;;
65691;SDS011;52411;52.716;6.696;2022-10-16T06:31:10;8.02;;;4.30;;
65691;SDS011;52411;52.716;6.696;2022-10-16T06:33:37;10.05;;;4.35;;
65691;SDS011;52411;52.716;6.696;2022-10-16T06:36:11;6.20;;;4.38;;
65691;SDS011;52411;52.716;6.696;2022-10-16T06:38:39;7.03;;;4.18;;
65691;SDS011;52411;52.716;6.696;2022-10-16T06:41:06;5.25;;;3.90;;
65691;SDS011;52411;52.716;6.696;2022-10-16T06:43:32;8.23;;;3.95;;
65691;SDS011;52411;52.716;6.696;2022-10-16T06:46:00;8.18;;;3.97;;
65691;SDS011;52411;52.716;6.696;2022-10-16T06:48:27;8.27;;;4.35;;
65691;SDS011;52411;52.716;6.696;2022-10-16T06:51:00;7.32;;;3.80;;
65691;SDS011;52411;52.716;6.696;2022-10-16T06:53:28;8.27;;;4.18;;
65691;SDS011;52411;52.716;6.696;2022-10-16T06:55:56;8.15;;;4.07;;
65691;SDS011;52411;52.716;6.696;2022-10-16T06:58:22;6.60;;;4.00;;
65691;SDS011;52411;52.716;6.696;2022-10-16T07:00:48;6.40;;;3.95;;
65691;SDS011;52411;52.716;6.696;2022-10-16T07:05:45;7.97;;;3.65;;
65691;SDS011;52411;52.716;6.696;2022-10-16T07:08:10;6.55;;;3.78;;
65691;SDS011;52411;52.716;6.696;2022-10-16T07:10:36;5.70;;;3.70;;
65691;SDS011;52411;52.716;6.696;2022-10-16T07:13:01;8.13;;;3.80;;
65691;SDS011;52411;52.716;6.696;2022-10-16T07:15:27;4.90;;;3.65;;
65691;SDS011;52411;52.716;6.696;2022-10-16T07:17:53;7.55;;;3.78;;
65691;SDS011;52411;52.716;6.696;2022-10-16T07:20:19;5.25;;;3.53;;
65691;SDS011;52411;52.716;6.696;2022-10-16T07:22:44;5.60;;;3.40;;
65691;SDS011;52411;52.716;6.696;2022-10-16T07:25:10;6.32;;;3.60;;
65691;SDS011;52411;52.716;6.696;2022-10-16T07:27:36;6.95;;;3.50;;
65691;SDS011;52411;52.716;6.696;2022-10-16T07:30:02;6.38;;;3.50;;
65691;SDS011;52411;52.716;6.696;2022-10-16T07:32:28;6.65;;;3.47;;
65691;SDS011;52411;52.716;6.696;2022-10-16T07:34:54;7.18;;;3.28;;
65691;SDS011;52411;52.716;6.696;2022-10-16T07:37:20;5.53;;;3.50;;
65691;SDS011;52411;52.716;6.696;2022-10-16T07:39:46;6.18;;;3.65;;
65691;SDS011;52411;52.716;6.696;2022-10-16T07:42:12;5.70;;;3.85;;
65691;SDS011;52411;52.716;6.696;2022-10-16T07:44:37;5.13;;;3.05;;
65691;SDS011;52411;52.716;6.696;2022-10-16T07:47:03;5.20;;;3.45;;
65691;SDS011;52411;52.716;6.696;2022-10-16T07:49:29;7.15;;;3.20;;
65691;SDS011;52411;52.716;6.696;2022-10-16T07:51:54;4.13;;;3.20;;
65691;SDS011;52411;52.716;6.696;2022-10-16T07:54:20;8.57;;;2.92;;
65691;SDS011;52411;52.716;6.696;2022-10-16T07:56:45;6.72;;;3.00;;
65691;SDS011;52411;52.716;6.696;2022-10-16T07:59:11;4.30;;;2.80;;
65691;SDS011;52411;52.716;6.696;2022-10-16T08:01:37;4.78;;;2.60;;
65691;SDS011;52411;52.716;6.696;2022-10-16T08:04:03;5.97;;;2.78;;
65691;SDS011;52411;52.716;6.696;2022-10-16T08:06:28;5.93;;;2.50;;
65691;SDS011;52411;52.716;6.696;2022-10-16T08:08:55;4.65;;;2.50;;
65691;SDS011;52411;52.716;6.696;2022-10-16T08:11:20;6.55;;;2.58;;
65691;SDS011;52411;52.716;6.696;2022-10-16T08:13:46;6.35;;;2.90;;
65691;SDS011;52411;52.716;6.696;2022-10-16T08:16:12;6.00;;;2.60;;
65691;SDS011;52411;52.716;6.696;2022-10-16T08:18:39;5.10;;;2.95;;
65691;SDS011;52411;52.716;6.696;2022-10-16T08:21:06;6.32;;;3.08;;
65691;SDS011;52411;52.716;6.696;2022-10-16T08:23:33;8.43;;;2.72;;
65691;SDS011;52411;52.716;6.696;2022-10-16T08:26:06;7.15;;;3.03;;
65691;SDS011;52411;52.716;6.696;2022-10-16T08:28:33;8.75;;;3.10;;
65691;SDS011;52411;52.716;6.696;2022-10-16T08:31:08;5.85;;;2.80;;
65691;SDS011;52411;52.716;6.696;2022-10-16T08:33:40;5.63;;;2.70;;
65691;SDS011;52411;52.716;6.696;2022-10-16T08:36:08;6.47;;;3.22;;
65691;SDS011;52411;52.716;6.696;2022-10-16T08:38:36;5.95;;;2.72;;
65691;SDS011;52411;52.716;6.696;2022-10-16T08:41:22;7.40;;;3.10;;
65691;SDS011;52411;52.716;6.696;2022-10-16T08:44:13;8.15;;;2.95;;
65691;SDS011;52411;52.716;6.696;2022-10-16T08:49:54;5.43;;;3.08;;
65691;SDS011;52411;52.716;6.696;2022-10-16T08:52:23;8.27;;;2.97;;
65691;SDS011;52411;52.716;6.696;2022-10-16T08:54:54;4.07;;;2.70;;
65691;SDS011;52411;52.716;6.696;2022-10-16T08:57:22;5.30;;;2.80;;
65691;SDS011;52411;52.716;6.696;2022-10-16T08:59:49;6.95;;;2.80;;
65691;SDS011;52411;52.716;6.696;2022-10-16T09:07:49;4.30;;;2.67;;
65691;SDS011;52411;52.716;6.696;2022-10-16T09:10:50;4.82;;;2.42;;
65691;SDS011;52411;52.716;6.696;2022-10-16T09:13:29;6.43;;;2.70;;
65691;SDS011;52411;52.716;6.696;2022-10-16T09:21:21;4.68;;;2.20;;
65691;SDS011;52411;52.716;6.696;2022-10-16T09:23:57;6.07;;;2.72;;
65691;SDS011;52411;52.716;6.696;2022-10-16T09:26:29;5.20;;;2.50;;
65691;SDS011;52411;52.716;6.696;2022-10-16T09:28:55;5.80;;;2.13;;
65691;SDS011;52411;52.716;6.696;2022-10-16T09:31:21;6.63;;;2.00;;
65691;SDS011;52411;52.716;6.696;2022-10-16T09:33:48;7.38;;;2.22;;
65691;SDS011;52411;52.716;6.696;2022-10-16T09:36:20;8.23;;;2.92;;
65691;SDS011;52411;52.716;6.696;2022-10-16T09:38:48;8.30;;;2.30;;
65691;SDS011;52411;52.716;6.696;2022-10-16T09:41:21;7.38;;;2.13;;
65691;SDS011;52411;52.716;6.696;2022-10-16T09:43:49;5.05;;;2.00;;
65691;SDS011;52411;52.716;6.696;2022-10-16T09:46:26;7.43;;;2.13;;
65691;SDS011;52411;52.716;6.696;2022-10-16T09:48:55;9.20;;;2.67;;
65691;SDS011;52411;52.716;6.696;2022-10-16T09:53:59;8.45;;;2.28;;
65691;SDS011;52411;52.716;6.696;2022-10-16T09:56:35;9.38;;;2.17;;
65691;SDS011;52411;52.716;6.696;2022-10-16T09:59:11;8.95;;;2.38;;
65691;SDS011;52411;52.716;6.696;2022-10-16T10:04:07;5.28;;;1.90;;
65691;SDS011;52411;52.716;6.696;2022-10-16T10:09:06;12.00;;;2.75;;
65691;SDS011;52411;52.716;6.696;2022-10-16T10:11:50;8.25;;;2.13;;
65691;SDS011;52411;52.716;6.696;2022-10-16T10:14:22;9.82;;;2.35;;
65691;SDS011;52411;52.716;6.696;2022-10-16T10:22:17;10.07;;;2.78;;
65691;SDS011;52411;52.716;6.696;2022-10-16T10:33:28;10.10;;;2.50;;
65691;SDS011;52411;52.716;6.696;2022-10-16T10:45:16;7.55;;;2.08;;
65691;SDS011;52411;52.716;6.696;2022-10-16T10:47:32;10.48;;;2.42;;
65691;SDS011;52411;52.716;6.696;2022-10-16T10:56:11;11.38;;;2.65;;
65691;SDS011;52411;52.716;6.696;2022-10-16T11:01:26;13.43;;;3.10;;
65691;SDS011;52411;52.716;6.696;2022-10-16T11:07:42;8.23;;;2.60;;
65691;SDS011;52411;52.716;6.696;2022-10-16T11:10:24;9.52;;;2.30;;
65691;SDS011;52411;52.716;6.696;2022-10-16T11:12:58;10.25;;;2.20;;
65691;SDS011;52411;52.716;6.696;2022-10-16T11:15:34;12.85;;;2.40;;
65691;SDS011;52411;52.716;6.696;2022-10-16T11:20:40;7.70;;;2.80;;
65691;SDS011;52411;52.716;6.696;2022-10-16T11:26:13;5.43;;;1.90;;
65691;SDS011;52411;52.716;6.696;2022-10-16T11:28:50;8.98;;;2.20;;
65691;SDS011;52411;52.716;6.696;2022-10-16T11:31:19;10.45;;;2.13;;
65691;SDS011;52411;52.716;6.696;2022-10-16T11:34:21;13.20;;;2.28;;
65691;SDS011;52411;52.716;6.696;2022-10-16T11:36:58;9.52;;;2.65;;
65691;SDS011;52411;52.716;6.696;2022-10-16T11:39:33;10.68;;;2.13;;
65691;SDS011;52411;52.716;6.696;2022-10-16T11:42:04;8.15;;;2.60;;
65691;SDS011;52411;52.716;6.696;2022-10-16T11:47:48;8.07;;;2.22;;
65691;SDS011;52411;52.716;6.696;2022-10-16T11:50:26;11.27;;;2.33;;
65691;SDS011;52411;52.716;6.696;2022-10-16T11:53:07;5.93;;;2.17;;
65691;SDS011;52411;52.716;6.696;2022-10-16T11:55:53;11.10;;;2.78;;
65691;SDS011;52411;52.716;6.696;2022-10-16T11:58:30;9.75;;;2.22;;
65691;SDS011;52411;52.716;6.696;2022-10-16T12:01:15;8.57;;;2.38;;
65691;SDS011;52411;52.716;6.696;2022-10-16T12:09:21;8.52;;;2.10;;
65691;SDS011;52411;52.716;6.696;2022-10-16T12:11:52;9.73;;;2.08;;
65691;SDS011;52411;52.716;6.696;2022-10-16T12:14:20;8.73;;;2.38;;
65691;SDS011;52411;52.716;6.696;2022-10-16T12:19:44;12.55;;;2.08;;
65691;SDS011;52411;52.716;6.696;2022-10-16T12:22:55;7.45;;;2.08;;
65691;SDS011;52411;52.716;6.696;2022-10-16T12:25:25;8.55;;;2.05;;
65691;SDS011;52411;52.716;6.696;2022-10-16T12:28:19;8.13;;;2.10;;
65691;SDS011;52411;52.716;6.696;2022-10-16T12:30:54;7.72;;;2.17;;
65691;SDS011;52411;52.716;6.696;2022-10-16T12:33:36;9.27;;;2.17;;
65691;SDS011;52411;52.716;6.696;2022-10-16T12:36:14;8.10;;;2.10;;
65691;SDS011;52411;52.716;6.696;2022-10-16T12:38:51;6.00;;;1.90;;
65691;SDS011;52411;52.716;6.696;2022-10-16T12:41:28;10.07;;;2.63;;
65691;SDS011;52411;52.716;6.696;2022-10-16T12:43:55;10.68;;;2.95;;
65691;SDS011;52411;52.716;6.696;2022-10-16T12:46:23;7.25;;;2.00;;
65691;SDS011;52411;52.716;6.696;2022-10-16T12:51:37;8.40;;;2.60;;
65691;SDS011;52411;52.716;6.696;2022-10-16T12:54:09;7.45;;;1.80;;
65691;SDS011;52411;52.716;6.696;2022-10-16T13:07:37;8.02;;;2.05;;
65691;SDS011;52411;52.716;6.696;2022-10-16T13:13:00;6.38;;;2.05;;
65691;SDS011;52411;52.716;6.696;2022-10-16T13:18:29;6.18;;;1.98;;
65691;SDS011;52411;52.716;6.696;2022-10-16T13:21:32;8.70;;;2.25;;
65691;SDS011;52411;52.716;6.696;2022-10-16T13:29:31;8.25;;;2.10;;
65691;SDS011;52411;52.716;6.696;2022-10-16T13:31:58;8.77;;;2.35;;
65691;SDS011;52411;52.716;6.696;2022-10-16T13:34:31;7.25;;;2.08;;
65691;SDS011;52411;52.716;6.696;2022-10-16T13:36:57;8.30;;;1.83;;
65691;SDS011;52411;52.716;6.696;2022-10-16T13:39:23;9.23;;;2.83;;
65691;SDS011;52411;52.716;6.696;2022-10-16T13:41:58;10.50;;;2.15;;
65691;SDS011;52411;52.716;6.696;2022-10-16T13:44:51;10.18;;;2.10;;
65691;SDS011;52411;52.716;6.696;2022-10-16T13:47:18;11.77;;;2.20;;
65691;SDS011;52411;52.716;6.696;2022-10-16T13:49:59;7.18;;;2.13;;
65691;SDS011;52411;52.716;6.696;2022-10-16T13:52:27;7.15;;;1.92;;
65691;SDS011;52411;52.716;6.696;2022-10-16T13:54:53;7.18;;;2.17;;
65691;SDS011;52411;52.716;6.696;2022-10-16T13:57:21;6.70;;;1.98;;
65691;SDS011;52411;52.716;6.696;2022-10-16T13:59:49;6.70;;;1.80;;
65691;SDS011;52411;52.716;6.696;2022-10-16T14:05:03;7.00;;;2.25;;
65691;SDS011;52411;52.716;6.696;2022-10-16T14:07:32;6.07;;;2.00;;
65691;SDS011;52411;52.716;6.696;2022-10-16T14:10:01;7.65;;;1.90;;
65691;SDS011;52411;52.716;6.696;2022-10-16T14:12:45;7.80;;;2.20;;
65691;SDS011;52411;52.716;6.696;2022-10-16T14:15:18;8.45;;;2.25;;
65691;SDS011;52411;52.716;6.696;2022-10-16T14:17:45;11.43;;;2.58;;
65691;SDS011;52411;52.716;6.696;2022-10-16T14:20:16;9.15;;;2.60;;
65691;SDS011;52411;52.716;6.696;2022-10-16T14:22:42;6.63;;;2.60;;
65691;SDS011;52411;52.716;6.696;2022-10-16T14:30:48;9.23;;;2.30;;
65691;SDS011;52411;52.716;6.696;2022-10-16T14:36:01;6.15;;;2.20;;
65691;SDS011;52411;52.716;6.696;2022-10-16T14:38:33;9.45;;;2.45;;
65691;SDS011;52411;52.716;6.696;2022-10-16T14:40:59;10.30;;;2.30;;
65691;SDS011;52411;52.716;6.696;2022-10-16T14:43:31;9.00;;;2.53;;
65691;SDS011;52411;52.716;6.696;2022-10-16T14:46:00;9.68;;;2.50;;
65691;SDS011;52411;52.716;6.696;2022-10-16T14:48:27;9.00;;;2.55;;
65691;SDS011;52411;52.716;6.696;2022-10-16T14:50:53;7.93;;;2.38;;
65691;SDS011;52411;52.716;6.696;2022-10-16T14:53:19;6.45;;;2.70;;
65691;SDS011;52411;52.716;6.696;2022-10-16T14:55:44;9.80;;;2.13;;
65691;SDS011;52411;52.716;6.696;2022-10-16T14:58:17;8.57;;;2.42;;
65691;SDS011;52411;52.716;6.696;2022-10-16T15:00:44;10.07;;;2.42;;
65691;SDS011;52411;52.716;6.696;2022-10-16T15:03:10;7.43;;;2.38;;
65691;SDS011;52411;52.716;6.696;2022-10-16T15:05:36;10.48;;;2.55;;
65691;SDS011;52411;52.716;6.696;2022-10-16T15:08:02;8.18;;;2.15;;
65691;SDS011;52411;52.716;6.696;2022-10-16T15:10:29;9.50;;;2.50;;
65691;SDS011;52411;52.716;6.696;2022-10-16T15:12:57;6.95;;;2.45;;
65691;SDS011;52411;52.716;6.696;2022-10-16T15:17:58;6.93;;;2.60;;
65691;SDS011;52411;52.716;6.696;2022-10-16T15:20:35;8.10;;;2.38;;
65691;SDS011;52411;52.716;6.696;2022-10-16T15:23:03;6.65;;;2.30;;
65691;SDS011;52411;52.716;6.696;2022-10-16T15:25:43;7.38;;;2.60;;
65691;SDS011;52411;52.716;6.696;2022-10-16T15:28:11;8.38;;;2.30;;
65691;SDS011;52411;52.716;6.696;2022-10-16T15:30:37;7.88;;;2.22;;
65691;SDS011;52411;52.716;6.696;2022-10-16T15:33:04;7.38;;;2.25;;
65691;SDS011;52411;52.716;6.696;2022-10-16T15:35:34;5.78;;;2.13;;
65691;SDS011;52411;52.716;6.696;2022-10-16T15:37:59;11.23;;;2.45;;
65691;SDS011;52411;52.716;6.696;2022-10-16T15:40:25;7.68;;;2.20;;
65691;SDS011;52411;52.716;6.696;2022-10-16T15:42:50;6.05;;;2.22;;
65691;SDS011;52411;52.716;6.696;2022-10-16T15:45:16;7.00;;;2.55;;
65691;SDS011;52411;52.716;6.696;2022-10-16T15:47:43;7.95;;;2.60;;
65691;SDS011;52411;52.716;6.696;2022-10-16T15:50:10;7.47;;;2.40;;
65691;SDS011;52411;52.716;6.696;2022-10-16T15:52:37;11.30;;;2.50;;
65691;SDS011;52411;52.716;6.696;2022-10-16T15:55:04;10.90;;;2.78;;
65691;SDS011;52411;52.716;6.696;2022-10-16T15:57:31;8.20;;;2.60;;
65691;SDS011;52411;52.716;6.696;2022-10-16T15:59:57;9.25;;;2.53;;
65691;SDS011;52411;52.716;6.696;2022-10-16T16:02:22;10.40;;;2.83;;
65691;SDS011;52411;52.716;6.696;2022-10-16T16:04:48;7.55;;;2.55;;
65691;SDS011;52411;52.716;6.696;2022-10-16T16:07:13;10.82;;;3.55;;
65691;SDS011;52411;52.716;6.696;2022-10-16T16:09:39;11.18;;;2.90;;
65691;SDS011;52411;52.716;6.696;2022-10-16T16:12:04;8.60;;;3.20;;
65691;SDS011;52411;52.716;6.696;2022-10-16T16:14:30;7.13;;;2.42;;
65691;SDS011;52411;52.716;6.696;2022-10-16T16:16:56;9.98;;;3.00;;
65691;SDS011;52411;52.716;6.696;2022-10-16T16:19:22;9.27;;;3.10;;
65691;SDS011;52411;52.716;6.696;2022-10-16T16:21:48;11.18;;;3.10;;
65691;SDS011;52411;52.716;6.696;2022-10-16T16:24:15;13.77;;;3.40;;
65691;SDS011;52411;52.716;6.696;2022-10-16T16:26:40;7.97;;;3.00;;
65691;SDS011;52411;52.716;6.696;2022-10-16T16:29:12;5.05;;;2.58;;
65691;SDS011;52411;52.716;6.696;2022-10-16T16:31:40;7.93;;;2.75;;
65691;SDS011;52411;52.716;6.696;2022-10-16T16:34:06;5.93;;;2.50;;
65691;SDS011;52411;52.716;6.696;2022-10-16T16:36:32;6.95;;;2.72;;
65691;SDS011;52411;52.716;6.696;2022-10-16T16:38:58;8.35;;;2.72;;
65691;SDS011;52411;52.716;6.696;2022-10-16T16:41:25;7.68;;;3.13;;
65691;SDS011;52411;52.716;6.696;2022-10-16T16:43:52;9.73;;;3.03;;
65691;SDS011;52411;52.716;6.696;2022-10-16T16:46:19;8.88;;;2.88;;
65691;SDS011;52411;52.716;6.696;2022-10-16T16:48:45;10.73;;;3.38;;
65691;SDS011;52411;52.716;6.696;2022-10-16T16:51:12;16.17;;;3.55;;
65691;SDS011;52411;52.716;6.696;2022-10-16T16:53:41;11.13;;;3.70;;
65691;SDS011;52411;52.716;6.696;2022-10-16T16:56:09;13.75;;;3.45;;
65691;SDS011;52411;52.716;6.696;2022-10-16T16:58:35;13.43;;;3.65;;
65691;SDS011;52411;52.716;6.696;2022-10-16T17:01:00;7.00;;;2.80;;
65691;SDS011;52411;52.716;6.696;2022-10-16T17:03:30;7.90;;;3.38;;
65691;SDS011;52411;52.716;6.696;2022-10-16T17:08:24;10.50;;;3.63;;
65691;SDS011;52411;52.716;6.696;2022-10-16T17:10:50;11.73;;;3.60;;
65691;SDS011;52411;52.716;6.696;2022-10-16T17:13:19;9.18;;;3.35;;
65691;SDS011;52411;52.716;6.696;2022-10-16T17:15:49;9.95;;;3.53;;
65691;SDS011;52411;52.716;6.696;2022-10-16T17:18:16;8.75;;;3.47;;